Pagrindinis puslapis
METAR-TAF:

METAR-TAF

Oro uostai :

Davidas, Panama

platuma: 08-24N, ilguma: 082-25W, Aukštis: 29 m

Dabartinis oras

Ataskaita buvo paskelbta 1 valandą ir 21 minutes, ne 16:00 UTC
Vėjas 2 kt nuo kintamojo kryptimis
Temperatūra 30°C
Drėgmė 66%
Slėgis 1013 hPa
Matomumas 10 km arba daugiau
Mažai debesys ne aukštis 1800 ft

METAR: MPDA 171600Z VRB02KT 9999 FEW018 30/23 Q1013

Laikas: 12:21 (17:21 UTC)

Prognozė

Ataskaita buvo paskelbta 6 valandos ir 21 minutes, ne 11:00 UTC
Prognozė galioja nuo 17 metu 12 UTC su 17 metu 24 UTC
Vėjas kt iš Šiaurės
Matomumas 10 km arba daugiau
Išsisklaidę debesys ne aukštis 2000 ft
Išsisklaidę debesys ne aukštis 10000 ft
Tapsmas
nuo 17 metu 20 UTC su 17 metu 24 UTC
Vėjas 5 kt iš Pietų
Matomumas: 6000 m
Išsisklaidę debesys ne aukštis 1600 ft, Liūtiniai kamuoliniai debesys.
Išsisklaidę debesys ne aukštis 8000 ft
perkūnija, lietus

TAF: MPDA 171100Z 1712/1724 00000KT 9999 SCT020 SCT100 BECMG 1720/1724 18005KT 6000 TSRA SCT016CB SCT080

Orai ataskaitas ir orų prognozės (METAR, TAF).

turimą stotys yra geltonos ir raudonos taškus žemėlapyje.

Perkelti pele per norėdami pamatyti stoties vardą.

Tada spustelėkite, norėdami matyti oro stebėjimo ir prognozės.

Norėdami pakeisti žemėlapį: spustelėkite ant žalios mygtukų su juodo kryžiaus žemyn,; žalią mygtuką su brūkšneliu, jei norite nutolinti; arba žalių rodyklių gretimoms žemėlapius.


METAR-TAF: